Airfield :
LOGIN :

Register | Disclaimer

   EN    FR    IT 

 










Legend :    VFR   Marginal VFR   IFR   Intensive IFR   Very Intensive IFR
Visi :
Ceiling :
>= 8 km
>= 3000ft
5 to 8 km
1000 to 3000 ft
1500m to 5 km
500 to 1000 ft
800 to 1500m
200 to 500 ft
< 800m
< 200 ft
Symbols :   Thunderstorms  Fog  Heavy snow  Heavy precipitations  Wind > 20 kt
SIGMETs :     Misc.  Thunderstorms  Icing  Turbulence  Mountain Waves  Volcanic Ashes







- Airport Elevation : 209 ft
- IATA code : CLY
- Download approach charts


LFKC - Calvi

CURRENT METAR :
  • 162200Z AUTO 17006KT CAVOK 04/M00 Q1013

EXPIRED METARs :
  • 162130Z AUTO 17007KT 9999 FEW047 05/01 Q1013
  • 162100Z AUTO 18006KT 9999 FEW049 04/00 Q1013
  • 162030Z AUTO 19004KT 9999 FEW052 04/00 Q1012
  • 162000Z AUTO 21006KT 180V260 9999 FEW062 05/01 Q1012
  • 161930Z AUTO 21005KT 9999 FEW050 05/01 Q1012

TAF TAF LFKC
Valid from the 16 at 15:00 until the 17 at 15:00 UTC


161400Z 1615/1715 21006KT 9999 SCT055
BECMG 1709/1710 02010KT TX13/1712Z TN03/1703Z
ATIS : +33 4 95 65 82 49
No reported NOTAMs for that airfield.
1 SIGMET reported for the Marseille FIR (LFMM) :
 
Severe turbulence
LFMM SIGMET 7 VALID 162000/162300 LFPW
LFMM MARSEILLE FIR/UIR SEV TURB FCST WI N4115 E00430 - N4200 E00430 - N4215 E00230 - N4330 E00245 - N4415 E00330 - N4415 E00515 - N4100 E00715 - N4115 E00430 SFC/FL050 STNR NC=



MET'MAP, your aeronautical weather chart ! - Copyright ORBIFLY December 2007 - Disclaimer

ORBIFLY MET'MAP TEAM :

Programming & Development : Alexandra Zaïnal
Concept & Development : Baudouin d'Aumeries
Co-Development & Prog : Marc-Olivier Méhu
Technical & hardware support : Manuel Goepfert

Contact : metmap@orbifly.com




SOURCES & CREDITS :

   NOAA